Round Rock, Texas
Current Conditions -  °F | °C
As of 6:35 AM on Monday 20 Oct 2014 (Local Time) from KEDC Reporting Station
Haze Haze  
Wind Chill: 16°   Ceiling: 1200
Heat Index: 16°   Visibility: 6mi
Dew Point: 16°   Wind: 3mph
Humidity: 100%   Direction: 10°N
Pressure: 30.06"   Gusts: NA
Location:  30.51°N, 97.68°W
Report Text: KEDC 201135Z AUTO 01003KT 6SM BR OVC012 16/16 A3006 RMK AO2
Loading
Personal Weather Stations






























Interactive Weather Map
Tropical Storm Tracking
New forecast layout! Learn more

10-Day Weather Forecast

Advertisements
Track Severe Weather on mobile